Time;durP1;ratioP1;P1;durP2;ratioP2;P2;SDS_P1;SDS_P2;PMS_P1;PMS_P2;Temp;Humidity;BMP_temperature;BMP_pressure;BME280_temperature;BME280_humidity;BME280_pressure;Samples;Min_cycle;Max_cycle;Signal;HPM_P1;HPM_P2
2024/03/08 06:16:19;;;;;;;;;24.33;23.33;;;;;;;;5720833;23;8999;-67
2024/03/08 06:18:44;;;;;;;;;22.67;22.33;;;;;;;;4952366;28;8938;-73
2024/03/08 06:21:11;;;;;;;;;27.00;23.33;;;;;;;;4920440;28;11281;-70
2024/03/08 06:23:38;;;;;;;;;26.00;26.00;;;;;;;;4952219;28;8796;-73
2024/03/08 06:26:03;;;;;;;;;25.33;24.33;;;;;;;;4952816;28;8828;-75
2024/03/08 06:28:29;;;;;;;;;18.00;18.00;;;;;;;;4952870;28;9518;-74
2024/03/08 06:30:54;;;;;;;;;33.00;28.33;;;;;;;;4952610;28;8812;-74
2024/03/08 06:33:19;;;;;;;;;28.67;28.33;;;;;;;;4948955;28;8864;-71
2024/03/08 06:35:45;;;;;;;;;27.67;24.00;;;;;;;;4951091;28;8851;-78
2024/03/08 06:38:11;;;;;;;;;29.67;27.00;;;;;;;;4950783;28;8796;-66
2024/03/08 06:40:36;;;;;;;;;27.67;25.33;;;;;;;;4952322;28;9802;-65
2024/03/08 06:43:05;;;;;;;;;25.33;23.00;;;;;;;;4950464;28;8832;-64
2024/03/08 06:45:31;;;;;;;;;27.33;23.00;;;;;;;;4950821;28;8855;-64
2024/03/08 06:47:56;;;;;;;;;27.67;25.33;;;;;;;;4951993;28;8851;-69
2024/03/08 06:50:21;;;;;;;;;33.67;26.67;;;;;;;;4951944;29;8804;-77
2024/03/08 06:52:50;;;;;;;;;29.33;28.00;;;;;;;;4951415;28;8820;-72
2024/03/08 06:55:17;;;;;;;;;18.67;15.00;;;;;;;;4952093;28;8820;-73
2024/03/08 06:57:42;;;;;;;;;0.00;0.00;;;;;;;;4952078;28;8813;-74
2024/03/08 07:00:13;;;;;;;;;28.67;27.00;;;;;;;;4950885;29;8855;-76
2024/03/08 07:02:40;;;;;;;;;30.33;27.33;;;;;;;;4951771;29;8804;-76
2024/03/08 07:05:05;;;;;;;;;27.67;26.00;;;;;;;;4951546;28;8864;-76
2024/03/08 07:07:31;;;;;;;;;24.33;24.33;;;;;;;;4950303;28;8824;-71
2024/03/08 07:09:57;;;;;;;;;30.00;28.67;;;;;;;;4951551;28;8801;-71
2024/03/08 07:12:23;;;;;;;;;29.00;28.67;;;;;;;;4951589;28;8851;-72
2024/03/08 07:14:48;;;;;;;;;24.67;22.67;;;;;;;;4966563;28;9582;-73
2024/03/08 07:17:13;;;;;;;;;32.00;31.00;;;;;;;;4950887;28;8876;-72
2024/03/08 07:19:39;;;;;;;;;29.67;28.33;;;;;;;;4952100;29;8796;-71
2024/03/08 07:22:08;;;;;;;;;30.33;29.33;;;;;;;;4966993;28;9413;-72
2024/03/08 07:24:52;;;;;;;;;38.33;34.00;;;;;;;;4952243;28;8808;-71
2024/03/08 07:27:18;;;;;;;;;35.33;32.67;;;;;;;;4950958;28;8852;-72
2024/03/08 07:29:43;;;;;;;;;36.67;36.00;;;;;;;;4952015;29;8854;-71
2024/03/08 07:32:19;;;;;;;;;31.33;30.00;;;;;;;;4950606;28;8926;-72
2024/03/08 07:34:44;;;;;;;;;35.00;31.33;;;;;;;;4955702;28;8804;-70
2024/03/08 07:37:10;;;;;;;;;34.00;34.00;;;;;;;;4955372;28;8831;-69
2024/03/08 07:39:36;;;;;;;;;34.33;33.33;;;;;;;;4955240;28;8820;-73
2024/03/08 07:42:01;;;;;;;;;33.33;31.33;;;;;;;;4955426;28;8870;-69
2024/03/08 07:44:27;;;;;;;;;41.33;37.00;;;;;;;;4955248;28;8804;-67
2024/03/08 07:46:53;;;;;;;;;33.67;31.67;;;;;;;;4955117;28;8836;-67
2024/03/08 07:49:18;;;;;;;;;38.00;33.00;;;;;;;;4955399;28;8823;-67
2024/03/08 07:51:43;;;;;;;;;35.00;33.33;;;;;;;;4955109;28;8894;-67
2024/03/08 07:54:09;;;;;;;;;39.00;31.33;;;;;;;;4955221;28;8792;-67
2024/03/08 07:56:36;;;;;;;;;37.67;35.00;;;;;;;;4955109;28;8807;-66
2024/03/08 07:59:03;;;;;;;;;39.00;38.00;;;;;;;;4954971;28;9570;-68
2024/03/08 08:01:30;;;;;;;;;35.00;33.33;;;;;;;;4955129;28;8927;-67
2024/03/08 08:03:56;;;;;;;;;46.00;38.00;;;;;;;;4955084;28;8780;-68
2024/03/08 08:06:21;;;;;;;;;40.33;36.00;;;;;;;;4954812;28;8892;-68
2024/03/08 08:08:47;;;;;;;;;41.00;38.33;;;;;;;;4955007;28;8788;-68
2024/03/08 08:11:12;;;;;;;;;31.33;31.33;;;;;;;;4954893;28;8805;-68
2024/03/08 08:13:37;;;;;;;;;47.00;39.00;;;;;;;;4954726;28;9534;-70
2024/03/08 08:16:03;;;;;;;;;45.67;38.67;;;;;;;;4954567;28;8804;-69
2024/03/08 08:18:29;;;;;;;;;42.67;39.00;;;;;;;;4954710;28;8820;-71
2024/03/08 08:20:55;;;;;;;;;46.33;41.67;;;;;;;;4954674;28;8788;-75
2024/03/08 08:23:20;;;;;;;;;54.00;43.33;;;;;;;;4954715;28;8793;-75
2024/03/08 08:25:46;;;;;;;;;56.00;47.00;;;;;;;;4954556;28;8866;-74
2024/03/08 08:28:12;;;;;;;;;61.67;51.67;;;;;;;;4953829;28;8823;-76
2024/03/08 08:30:37;;;;;;;;;61.33;47.67;;;;;;;;4951056;28;9021;-73
2024/03/08 08:33:05;;;;;;;;;57.33;46.00;;;;;;;;4954340;28;8915;-71
2024/03/08 08:35:30;;;;;;;;;46.75;40.50;;;;;;;;4954283;28;8808;-72
2024/03/08 08:37:55;;;;;;;;;45.75;40.00;;;;;;;;4954070;28;11590;-79
2024/03/08 08:40:22;;;;;;;;;44.50;37.00;;;;;;;;4954248;28;8835;-78
2024/03/08 08:42:48;;;;;;;;;51.00;40.75;;;;;;;;4953594;28;8824;-81
2024/03/08 08:45:13;;;;;;;;;47.50;40.00;;;;;;;;4953335;28;11631;-79
2024/03/08 08:47:42;;;;;;;;;36.75;34.75;;;;;;;;4953546;28;8828;-80
2024/03/08 08:50:11;;;;;;;;;41.25;36.25;;;;;;;;4953639;28;8797;-81
2024/03/08 08:52:37;;;;;;;;;45.50;38.00;;;;;;;;4950915;28;11570;-81
2024/03/08 08:55:04;;;;;;;;;48.00;38.00;;;;;;;;4953378;28;11670;-82
2024/03/08 08:57:30;;;;;;;;;41.00;35.25;;;;;;;;4953346;28;11693;-78
2024/03/08 08:59:57;;;;;;;;;46.00;37.00;;;;;;;;4951923;28;12403;-77
2024/03/08 09:02:22;;;;;;;;;45.75;38.75;;;;;;;;4968602;28;11601;-76
2024/03/08 09:04:48;;;;;;;;;48.75;40.00;;;;;;;;4953523;28;11560;-75
2024/03/08 09:07:13;;;;;;;;;46.50;38.50;;;;;;;;4953778;28;8812;-77
2024/03/08 09:09:39;;;;;;;;;39.75;36.75;;;;;;;;4953678;28;8808;-76
2024/03/08 09:12:04;;;;;;;;;43.25;37.50;;;;;;;;4953231;28;8851;-76
2024/03/08 09:14:29;;;;;;;;;41.25;35.25;;;;;;;;4953423;28;8806;-77
2024/03/08 09:16:55;;;;;;;;;38.00;34.00;;;;;;;;4953455;28;9696;-79
2024/03/08 09:19:20;;;;;;;;;39.50;34.75;;;;;;;;4953657;28;8808;-78
2024/03/08 09:21:45;;;;;;;;;39.75;33.75;;;;;;;;4953453;28;8815;-76
2024/03/08 09:24:12;;;;;;;;;39.50;33.00;;;;;;;;4953430;28;8808;-77
2024/03/08 09:26:37;;;;;;;;;39.75;36.00;;;;;;;;4951822;28;9744;-78
2024/03/08 09:29:03;;;;;;;;;44.25;35.25;;;;;;;;4951382;28;11177;-75
2024/03/08 09:31:28;;;;;;;;;35.00;32.25;;;;;;;;4953235;28;8866;-75
2024/03/08 09:33:53;;;;;;;;;38.00;33.00;;;;;;;;4952862;28;9542;-77
2024/03/08 09:36:19;;;;;;;;;38.50;33.50;;;;;;;;4953244;28;9593;-75
2024/03/08 09:38:44;;;;;;;;;36.75;32.00;;;;;;;;4951950;28;8841;-76
2024/03/08 09:41:10;;;;;;;;;32.50;30.00;;;;;;;;4952739;28;8812;-76
2024/03/08 09:43:35;;;;;;;;;34.00;31.75;;;;;;;;4952917;28;8777;-75
2024/03/08 09:46:02;;;;;;;;;34.00;30.25;;;;;;;;4952956;28;11066;-77
2024/03/08 09:48:29;;;;;;;;;33.75;31.50;;;;;;;;4952953;28;8907;-77
2024/03/08 09:50:55;;;;;;;;;37.25;31.75;;;;;;;;4952970;28;10090;-76
2024/03/08 09:53:22;;;;;;;;;36.00;32.00;;;;;;;;4953051;28;9494;-73
2024/03/08 09:55:49;;;;;;;;;32.00;31.00;;;;;;;;4952245;28;9989;-78
2024/03/08 10:00:43;;;;;;;;;32.25;30.25;;;;;;;;4952790;28;10270;-73
2024/03/08 10:03:08;;;;;;;;;31.00;29.75;;;;;;;;4952800;28;9572;-72
2024/03/08 10:05:34;;;;;;;;;31.33;29.00;;;;;;;;4951447;28;8804;-77
2024/03/08 10:08:00;;;;;;;;;31.67;28.00;;;;;;;;4952952;28;8804;-80
2024/03/08 10:10:26;;;;;;;;;28.00;28.00;;;;;;;;4952723;28;8796;-81
2024/03/08 10:12:51;;;;;;;;;27.67;25.00;;;;;;;;4952029;28;8818;-80
2024/03/08 10:15:16;;;;;;;;;22.00;22.00;;;;;;;;4952365;28;9535;-85
2024/03/08 10:17:43;;;;;;;;;20.00;18.33;;;;;;;;4952466;28;8848;-79
2024/03/08 10:20:15;;;;;;;;;21.25;21.25;;;;;;;;4952526;28;9540;-79
2024/03/08 10:22:42;;;;;;;;;24.75;23.00;;;;;;;;4952143;28;8828;-73
2024/03/08 10:25:10;;;;;;;;;21.75;20.00;;;;;;;;4951193;28;8885;-72
2024/03/08 10:27:35;;;;;;;;;24.00;20.75;;;;;;;;4951678;28;9692;-74
2024/03/08 10:30:01;;;;;;;;;20.67;18.33;;;;;;;;4951301;28;9026;-77
2024/03/08 10:32:26;;;;;;;;;17.00;15.00;;;;;;;;4952638;28;8800;-75
2024/03/08 10:34:51;;;;;;;;;12.00;10.67;;;;;;;;4952405;29;8881;-74
2024/03/08 10:37:22;;;;;;;;;16.00;16.00;;;;;;;;4949243;28;8852;-74
2024/03/08 10:39:52;;;;;;;;;18.00;14.75;;;;;;;;4952813;28;8788;-81
2024/03/08 10:42:20;;;;;;;;;16.25;15.25;;;;;;;;4952901;28;8883;-89
2024/03/08 10:44:54;;;;;;;;;12.00;11.00;;;;;;;;4953669;28;8879;-89
2024/03/08 10:47:26;;;;;;;;;14.25;13.25;;;;;;;;4950520;29;8820;-88
2024/03/08 10:49:54;;;;;;;;;15.75;15.00;;;;;;;;4952453;28;8816;-87
2024/03/08 10:52:20;;;;;;;;;29.25;28.50;;;;;;;;4949563;29;8804;-87
2024/03/08 10:54:47;;;;;;;;;59.75;46.00;;;;;;;;4952534;28;8934;-88
2024/03/08 10:57:13;;;;;;;;;51.25;42.75;;;;;;;;4951718;28;10941;-87
2024/03/08 10:59:39;;;;;;;;;18.00;17.33;;;;;;;;4949082;29;10490;-84
2024/03/08 11:02:04;;;;;;;;;13.33;13.33;;;;;;;;4951741;28;8843;-77
2024/03/08 11:04:33;;;;;;;;;14.33;13.00;;;;;;;;4952814;28;11503;-87
2024/03/08 11:07:06;;;;;;;;;12.25;11.50;;;;;;;;4952177;28;8804;-83
2024/03/08 11:09:36;;;;;;;;;13.25;12.00;;;;;;;;4955680;28;8902;-80
2024/03/08 11:12:20;;;;;;;;;13.00;12.50;;;;;;;;4955953;28;8939;-83
2024/03/08 11:14:48;;;;;;;;;32.25;30.25;;;;;;;;4955895;28;8834;-77
2024/03/08 11:17:14;;;;;;;;;15.00;13.67;;;;;;;;4954785;28;10109;-85
2024/03/08 11:19:45;;;;;;;;;15.67;15.00;;;;;;;;4955183;28;8901;-87
2024/03/08 11:22:21;;;;;;;;;12.33;12.00;;;;;;;;4955280;28;8793;-83
2024/03/08 11:24:46;;;;;;;;;19.00;18.50;;;;;;;;4952865;28;9328;-82
2024/03/08 11:27:12;;;;;;;;;17.50;16.00;;;;;;;;4954899;28;9681;-77
2024/03/08 11:29:39;;;;;;;;;14.00;14.00;;;;;;;;4954822;28;8828;-77
2024/03/08 11:32:06;;;;;;;;;17.50;14.00;;;;;;;;4955063;28;8930;-76
2024/03/08 11:34:33;;;;;;;;;16.00;13.00;;;;;;;;4954449;28;9767;-78
2024/03/08 11:36:59;;;;;;;;;19.25;16.75;;;;;;;;4955017;28;9939;-77
2024/03/08 11:39:25;;;;;;;;;16.25;14.75;;;;;;;;4955379;28;10060;-79
2024/03/08 11:41:51;;;;;;;;;14.00;14.00;;;;;;;;4954002;28;8956;-75
2024/03/08 11:44:17;;;;;;;;;13.00;13.00;;;;;;;;4954934;28;11543;-84
2024/03/08 11:46:47;;;;;;;;;8.25;8.25;;;;;;;;4950684;28;10009;-74
2024/03/08 11:49:13;;;;;;;;;17.00;15.25;;;;;;;;4935773;29;10330;-74
2024/03/08 11:51:38;;;;;;;;;13.25;12.50;;;;;;;;4936004;29;10366;-74
2024/03/08 11:54:03;;;;;;;;;11.00;10.25;;;;;;;;4935851;29;8810;-73
2024/03/08 11:56:29;;;;;;;;;15.75;13.50;;;;;;;;4935493;29;8831;-72
2024/03/08 11:58:57;;;;;;;;;13.25;12.00;;;;;;;;4940009;28;8800;-79
2024/03/08 12:01:23;;;;;;;;;16.00;15.25;;;;;;;;4955010;28;8804;-80
2024/03/08 12:03:59;;;;;;;;;25.25;24.25;;;;;;;;4954950;28;10695;-80
2024/03/08 12:06:25;;;;;;;;;32.75;29.75;;;;;;;;4954838;28;12387;-80
2024/03/08 12:08:51;;;;;;;;;15.00;14.00;;;;;;;;4954836;28;11517;-81
2024/03/08 12:11:23;;;;;;;;;14.00;12.00;;;;;;;;4953335;28;10882;-80
2024/03/08 12:13:50;;;;;;;;;16.25;16.25;;;;;;;;4954845;28;8948;-79
2024/03/08 12:16:17;;;;;;;;;18.50;18.50;;;;;;;;4953475;28;11039;-79
2024/03/08 12:18:43;;;;;;;;;19.75;19.75;;;;;;;;4954469;28;11199;-79
2024/03/08 12:21:20;;;;;;;;;16.00;14.00;;;;;;;;4954572;28;11918;-79
2024/03/08 12:23:46;;;;;;;;;34.50;31.25;;;;;;;;4953453;28;8899;-78
2024/03/08 12:26:13;;;;;;;;;49.75;42.00;;;;;;;;4954449;28;11505;-79
2024/03/08 12:28:38;;;;;;;;;21.00;18.75;;;;;;;;4954686;28;8907;-79
2024/03/08 12:31:10;;;;;;;;;14.25;12.75;;;;;;;;4953250;28;11318;-78
2024/03/08 12:33:35;;;;;;;;;16.00;11.25;;;;;;;;4954963;28;8824;-77
2024/03/08 12:36:00;;;;;;;;;12.75;11.25;;;;;;;;4954325;28;10744;-78
2024/03/08 12:38:31;;;;;;;;;15.00;13.50;;;;;;;;4953059;28;8816;-77
2024/03/08 12:41:00;;;;;;;;;15.25;12.25;;;;;;;;4954410;28;8788;-78
2024/03/08 12:43:25;;;;;;;;;20.25;19.75;;;;;;;;4954247;28;10871;-84
2024/03/08 12:45:51;;;;;;;;;14.50;12.50;;;;;;;;4954272;28;11176;-78
2024/03/08 12:48:17;;;;;;;;;13.00;13.00;;;;;;;;4954227;28;9550;-79
2024/03/08 12:50:45;;;;;;;;;13.75;13.75;;;;;;;;4954134;28;8824;-78
2024/03/08 12:53:11;;;;;;;;;12.75;11.00;;;;;;;;4954183;28;8815;-77
2024/03/08 12:55:36;;;;;;;;;13.00;10.25;;;;;;;;4952693;28;10902;-77
2024/03/08 12:58:01;;;;;;;;;9.25;8.25;;;;;;;;4954196;28;8804;-77
2024/03/08 13:00:28;;;;;;;;;15.25;14.25;;;;;;;;4953966;28;8804;-77
2024/03/08 13:02:53;;;;;;;;;9.25;8.25;;;;;;;;4954037;28;8832;-77
2024/03/08 13:05:19;;;;;;;;;15.50;14.00;;;;;;;;4953831;28;10595;-78
2024/03/08 13:07:45;;;;;;;;;13.00;10.25;;;;;;;;4954219;28;8970;-76
2024/03/08 13:10:14;;;;;;;;;8.75;8.75;;;;;;;;4953823;28;10972;-76
2024/03/08 13:12:39;;;;;;;;;12.00;10.00;;;;;;;;4953702;28;10824;-76
2024/03/08 13:15:05;;;;;;;;;11.25;11.25;;;;;;;;4953559;28;10871;-76
2024/03/08 13:17:30;;;;;;;;;12.50;12.25;;;;;;;;4953987;28;8846;-76
2024/03/08 13:19:57;;;;;;;;;14.25;12.00;;;;;;;;4952198;28;9037;-76
2024/03/08 13:22:24;;;;;;;;;9.75;9.50;;;;;;;;4952410;28;8836;-77
2024/03/08 13:24:50;;;;;;;;;12.00;10.25;;;;;;;;4953463;28;11213;-77
2024/03/08 13:27:22;;;;;;;;;12.50;12.50;;;;;;;;4953330;28;11233;-76
2024/03/08 13:29:48;;;;;;;;;13.00;13.00;;;;;;;;4951991;28;8891;-75
2024/03/08 13:32:13;;;;;;;;;13.25;13.00;;;;;;;;4951724;28;12187;-76
2024/03/08 13:34:42;;;;;;;;;16.75;13.75;;;;;;;;4953175;28;11597;-77
2024/03/08 13:37:09;;;;;;;;;11.50;10.00;;;;;;;;4951938;28;8828;-77
2024/03/08 13:39:40;;;;;;;;;11.50;10.00;;;;;;;;4953329;28;11219;-77
2024/03/08 13:42:12;;;;;;;;;9.00;8.50;;;;;;;;4953181;28;10961;-76
2024/03/08 13:44:39;;;;;;;;;1.00;0.75;;;;;;;;4953506;28;10935;-75
2024/03/08 13:47:04;;;;;;;;;3.75;2.75;;;;;;;;4952928;28;10825;-76
2024/03/08 13:49:30;;;;;;;;;8.25;7.75;;;;;;;;4953071;28;10884;-76
2024/03/08 13:51:57;;;;;;;;;8.50;7.00;;;;;;;;4953414;28;8804;-76
2024/03/08 13:54:22;;;;;;;;;7.50;6.50;;;;;;;;4951870;28;8827;-76
2024/03/08 13:56:49;;;;;;;;;6.25;5.75;;;;;;;;4953042;28;10748;-77
2024/03/08 13:59:14;;;;;;;;;7.00;6.25;;;;;;;;4953307;28;8977;-77
2024/03/08 14:01:39;;;;;;;;;6.00;4.75;;;;;;;;4952785;28;10929;-76
2024/03/08 14:04:05;;;;;;;;;5.00;5.00;;;;;;;;4952895;28;8800;-76
2024/03/08 14:06:30;;;;;;;;;8.00;5.75;;;;;;;;4952894;28;8850;-77
2024/03/08 14:08:56;;;;;;;;;5.50;5.00;;;;;;;;4951564;28;8811;-75
2024/03/08 14:11:23;;;;;;;;;6.00;6.00;;;;;;;;4952916;28;8792;-76
2024/03/08 14:13:49;;;;;;;;;7.50;6.00;;;;;;;;4952910;28;10794;-76
2024/03/08 14:16:17;;;;;;;;;5.00;4.25;;;;;;;;4952570;28;11007;-73
2024/03/08 14:18:43;;;;;;;;;7.50;5.75;;;;;;;;4952846;28;8917;-76
2024/03/08 14:21:08;;;;;;;;;6.00;6.00;;;;;;;;4952650;28;10967;-76
2024/03/08 14:23:34;;;;;;;;;5.25;5.25;;;;;;;;4952776;28;8808;-75
2024/03/08 14:25:59;;;;;;;;;5.00;5.00;;;;;;;;4952192;28;8882;-75
2024/03/08 14:28:27;;;;;;;;;6.50;4.00;;;;;;;;4951343;28;8854;-75
2024/03/08 14:30:52;;;;;;;;;6.75;5.25;;;;;;;;4952204;28;8963;-75
2024/03/08 14:33:18;;;;;;;;;4.50;4.50;;;;;;;;4952716;28;11161;-76
2024/03/08 14:35:43;;;;;;;;;6.50;6.50;;;;;;;;4952141;28;8851;-75
2024/03/08 14:38:10;;;;;;;;;6.50;5.75;;;;;;;;4952593;28;8812;-75
2024/03/08 14:40:36;;;;;;;;;7.75;6.75;;;;;;;;4952644;28;8789;-76
2024/03/08 14:43:01;;;;;;;;;8.25;5.50;;;;;;;;4955493;28;11183;-75
2024/03/08 14:45:26;;;;;;;;;6.00;6.00;;;;;;;;4956391;28;8823;-75
2024/03/08 14:47:52;;;;;;;;;6.00;6.00;;;;;;;;4956516;28;8816;-76
2024/03/08 14:50:22;;;;;;;;;7.00;6.00;;;;;;;;4956410;28;8820;-75
2024/03/08 14:52:48;;;;;;;;;7.25;7.25;;;;;;;;4956276;28;8780;-78
2024/03/08 14:55:14;;;;;;;;;5.00;5.00;;;;;;;;4956097;28;11478;-76
2024/03/08 14:57:45;;;;;;;;;5.25;5.25;;;;;;;;4956238;28;8935;-76
2024/03/08 15:00:15;;;;;;;;;3.00;3.00;;;;;;;;4956205;28;11086;-77
2024/03/08 15:02:42;;;;;;;;;6.00;6.00;;;;;;;;4956175;28;11184;-76
2024/03/08 15:05:11;;;;;;;;;6.75;6.00;;;;;;;;4956062;28;11135;-78
2024/03/08 15:07:36;;;;;;;;;8.75;8.25;;;;;;;;4955939;28;11385;-77
2024/03/08 15:10:01;;;;;;;;;11.00;8.00;;;;;;;;4955924;28;11564;-77
2024/03/08 15:12:28;;;;;;;;;7.25;6.00;;;;;;;;4956263;28;8784;-77
2024/03/08 15:14:55;;;;;;;;;6.75;6.75;;;;;;;;4955914;28;8949;-78
2024/03/08 15:17:21;;;;;;;;;8.25;7.50;;;;;;;;4956069;28;11195;-76
2024/03/08 15:19:50;;;;;;;;;6.75;6.75;;;;;;;;4955786;28;11191;-77
2024/03/08 15:22:17;;;;;;;;;7.00;7.00;;;;;;;;4955674;28;11134;-77
2024/03/08 15:24:43;;;;;;;;;6.00;6.00;;;;;;;;4955619;28;11049;-74
2024/03/08 15:27:08;;;;;;;;;6.50;6.00;;;;;;;;4955459;28;11060;-75
2024/03/08 15:29:35;;;;;;;;;7.00;7.00;;;;;;;;4954264;28;8902;-79
2024/03/08 15:32:00;;;;;;;;;6.00;5.75;;;;;;;;4952083;28;8832;-78
2024/03/08 15:34:26;;;;;;;;;8.50;6.25;;;;;;;;4955336;28;11297;-79
2024/03/08 15:36:51;;;;;;;;;7.25;7.25;;;;;;;;4955326;28;8855;-77
2024/03/08 15:39:24;;;;;;;;;7.25;7.25;;;;;;;;4955420;28;8788;-78
2024/03/08 15:41:49;;;;;;;;;10.00;7.50;;;;;;;;4955719;28;9564;-81
2024/03/08 15:44:15;;;;;;;;;22.75;22.75;;;;;;;;4955155;28;11102;-81
2024/03/08 15:46:41;;;;;;;;;20.00;18.25;;;;;;;;4953676;28;8962;-80
2024/03/08 15:49:06;;;;;;;;;13.25;12.50;;;;;;;;4953946;28;11659;-81
2024/03/08 15:51:32;;;;;;;;;11.00;10.50;;;;;;;;4954010;28;8812;-81
2024/03/08 15:53:58;;;;;;;;;12.00;11.00;;;;;;;;4953352;28;8824;-81
2024/03/08 15:56:23;;;;;;;;;12.50;11.00;;;;;;;;4954778;28;8868;-81
2024/03/08 15:58:49;;;;;;;;;16.00;12.50;;;;;;;;4954998;28;9584;-82
2024/03/08 16:01:16;;;;;;;;;16.00;12.00;;;;;;;;4954457;28;8820;-81
2024/03/08 16:03:42;;;;;;;;;10.00;10.00;;;;;;;;4955013;28;8788;-82
2024/03/08 16:06:08;;;;;;;;;9.75;9.75;;;;;;;;4954906;28;12203;-81
2024/03/08 16:08:36;;;;;;;;;12.25;10.25;;;;;;;;4954888;28;8843;-80
2024/03/08 16:11:05;;;;;;;;;14.75;13.75;;;;;;;;4955019;28;8815;-82
2024/03/08 16:13:32;;;;;;;;;11.00;10.25;;;;;;;;4953407;28;11687;-81
2024/03/08 16:16:00;;;;;;;;;13.50;13.00;;;;;;;;4954389;28;12268;-82
2024/03/08 16:18:25;;;;;;;;;15.25;15.25;;;;;;;;4955045;28;11533;-82
2024/03/08 16:20:51;;;;;;;;;14.50;14.50;;;;;;;;4954625;28;11497;-72
2024/03/08 16:23:17;;;;;;;;;16.75;16.00;;;;;;;;4953227;28;8825;-73
2024/03/08 16:25:43;;;;;;;;;21.25;18.50;;;;;;;;4953000;28;11612;-78
2024/03/08 16:28:09;;;;;;;;;16.75;16.00;;;;;;;;4954050;28;8926;-73
2024/03/08 16:30:34;;;;;;;;;17.75;15.00;;;;;;;;4953584;28;8800;-74
2024/03/08 16:33:00;;;;;;;;;17.25;15.25;;;;;;;;4953154;28;11485;-72
2024/03/08 16:35:25;;;;;;;;;19.25;17.50;;;;;;;;4953134;28;8851;-75
2024/03/08 16:37:52;;;;;;;;;18.00;16.25;;;;;;;;4953580;28;9581;-78
2024/03/08 16:40:19;;;;;;;;;14.50;13.25;;;;;;;;4953805;28;9578;-75
2024/03/08 16:42:45;;;;;;;;;16.75;12.00;;;;;;;;4950206;28;11656;-69
2024/03/08 16:45:11;;;;;;;;;7.75;7.75;;;;;;;;4949998;28;11637;-70
2024/03/08 16:47:36;;;;;;;;;17.00;15.75;;;;;;;;4953577;28;8926;-74
2024/03/08 16:50:05;;;;;;;;;15.00;13.25;;;;;;;;4953152;28;11612;-79
2024/03/08 16:52:31;;;;;;;;;13.50;11.75;;;;;;;;4953277;28;8851;-79
2024/03/08 16:54:57;;;;;;;;;17.25;15.00;;;;;;;;4949926;28;11565;-76
2024/03/08 16:57:25;;;;;;;;;16.50;14.00;;;;;;;;4952013;28;11569;-78
2024/03/08 16:59:50;;;;;;;;;14.00;12.75;;;;;;;;4951911;28;8812;-81
2024/03/08 17:02:16;;;;;;;;;14.00;13.00;;;;;;;;4951997;28;11625;-77
2024/03/08 17:52:29;;;;;;;;;9.00;8.75;;;;;;;;5084398;27;13450;-68
2024/03/08 17:54:55;;;;;;;;;10.00;10.00;;;;;;;;5069176;28;11480;-69
2024/03/08 17:57:20;;;;;;;;;11.25;10.75;;;;;;;;5067305;28;9420;-66
2024/03/08 17:59:45;;;;;;;;;15.00;12.00;;;;;;;;5066910;28;8890;-69
2024/03/08 18:02:13;;;;;;;;;25.25;21.50;;;;;;;;5066939;28;8933;-72
2024/03/08 18:04:38;;;;;;;;;27.00;26.00;;;;;;;;5064289;28;8848;-70
2024/03/08 18:07:05;;;;;;;;;14.00;13.25;;;;;;;;5066368;28;11636;-70
2024/03/08 18:09:30;;;;;;;;;13.50;11.75;;;;;;;;5066389;28;8923;-73
2024/03/08 18:11:58;;;;;;;;;10.00;10.00;;;;;;;;5066728;28;12476;-72
2024/03/08 18:14:24;;;;;;;;;11.00;11.00;;;;;;;;5064699;28;8789;-76
2024/03/08 18:16:49;;;;;;;;;20.00;17.25;;;;;;;;5066367;28;11533;-78
2024/03/08 18:19:19;;;;;;;;;17.00;13.50;;;;;;;;5064096;28;8935;-77
2024/03/08 18:21:44;;;;;;;;;13.00;13.00;;;;;;;;5066839;28;8801;-73
2024/03/08 18:24:09;;;;;;;;;18.00;14.50;;;;;;;;5065353;28;11621;-71
2024/03/08 18:26:35;;;;;;;;;21.00;19.25;;;;;;;;5065278;28;8769;-73
2024/03/08 18:29:04;;;;;;;;;17.00;13.25;;;;;;;;5063525;28;8805;-78
2024/03/08 18:31:30;;;;;;;;;19.75;15.00;;;;;;;;5065972;28;9539;-78
2024/03/08 18:33:56;;;;;;;;;15.25;14.50;;;;;;;;5065801;28;11698;-72
2024/03/08 18:36:21;;;;;;;;;20.50;18.50;;;;;;;;5063633;28;11597;-69
2024/03/08 18:38:46;;;;;;;;;16.00;14.00;;;;;;;;5066091;28;8990;-71
2024/03/08 18:41:11;;;;;;;;;14.75;14.75;;;;;;;;5066411;28;8777;-73
2024/03/08 18:43:37;;;;;;;;;13.50;13.00;;;;;;;;5066219;28;8829;-71
2024/03/08 18:46:04;;;;;;;;;11.00;11.00;;;;;;;;5064424;28;8908;-76
2024/03/08 18:48:30;;;;;;;;;10.00;9.00;;;;;;;;5066491;28;8793;-75
2024/03/08 18:50:55;;;;;;;;;14.25;12.00;;;;;;;;5073435;28;11428;-69
2024/03/08 18:53:20;;;;;;;;;14.25;13.00;;;;;;;;5079837;28;8938;-70
2024/03/08 18:55:46;;;;;;;;;13.00;10.00;;;;;;;;5083495;28;8772;-69
2024/03/08 18:58:11;;;;;;;;;13.75;12.00;;;;;;;;5067091;28;8914;-71
2024/03/08 19:00:36;;;;;;;;;12.50;12.50;;;;;;;;5085882;28;8849;-70
2024/03/08 19:03:05;;;;;;;;;13.25;13.25;;;;;;;;5076393;28;9579;-71
2024/03/08 19:05:32;;;;;;;;;11.00;11.00;;;;;;;;5069624;28;8796;-71
2024/03/08 19:07:58;;;;;;;;;15.75;14.00;;;;;;;;5053837;28;12220;-68
2024/03/08 19:10:24;;;;;;;;;12.00;12.00;;;;;;;;5071939;28;11502;-70
2024/03/08 19:12:55;;;;;;;;;11.75;11.75;;;;;;;;5071945;28;8777;-70
2024/03/08 19:15:21;;;;;;;;;11.00;11.00;;;;;;;;5068154;28;11455;-69
2024/03/08 19:17:49;;;;;;;;;14.00;13.00;;;;;;;;5071935;28;12234;-69
2024/03/08 19:20:18;;;;;;;;;12.00;12.00;;;;;;;;5071729;28;11462;-68
2024/03/08 19:22:45;;;;;;;;;12.00;12.00;;;;;;;;5071708;28;11473;-70
2024/03/08 19:25:10;;;;;;;;;12.25;12.25;;;;;;;;5072970;28;11469;-68
2024/03/08 19:27:36;;;;;;;;;13.00;11.00;;;;;;;;5071914;28;11443;-70
2024/03/08 19:30:14;;;;;;;;;11.00;10.75;;;;;;;;5072373;28;8780;-70
2024/03/08 19:32:40;;;;;;;;;8.50;8.25;;;;;;;;5072323;28;11453;-71
2024/03/08 19:35:12;;;;;;;;;11.50;10.75;;;;;;;;5071093;28;11403;-69
2024/03/08 19:37:43;;;;;;;;;13.00;11.75;;;;;;;;5070686;28;8863;-71
2024/03/08 19:40:21;;;;;;;;;13.00;12.25;;;;;;;;5072058;28;11515;-70
2024/03/08 19:42:53;;;;;;;;;9.75;8.75;;;;;;;;5071802;28;11409;-72
2024/03/08 19:45:25;;;;;;;;;10.50;10.00;;;;;;;;5072487;28;12441;-72
2024/03/08 19:47:51;;;;;;;;;14.25;10.00;;;;;;;;5071620;28;11387;-74
2024/03/08 19:50:17;;;;;;;;;10.00;9.50;;;;;;;;5071309;28;11393;-73
2024/03/08 19:52:46;;;;;;;;;10.25;10.25;;;;;;;;5072077;28;8800;-75
2024/03/08 19:55:13;;;;;;;;;8.00;8.00;;;;;;;;5072492;28;8792;-71
2024/03/08 19:57:39;;;;;;;;;12.75;10.50;;;;;;;;5069396;28;11446;-71
2024/03/08 20:00:12;;;;;;;;;13.75;13.75;;;;;;;;5070097;28;11405;-73
2024/03/08 20:02:40;;;;;;;;;9.50;9.50;;;;;;;;5052456;28;8843;-74
2024/03/08 20:05:05;;;;;;;;;13.50;10.25;;;;;;;;5053489;28;11480;-74
2024/03/08 20:07:31;;;;;;;;;8.25;8.25;;;;;;;;5051980;28;11506;-74
2024/03/08 20:09:56;;;;;;;;;10.75;10.00;;;;;;;;5070353;28;8788;-72
2024/03/08 20:12:21;;;;;;;;;10.00;7.75;;;;;;;;5071027;28;8832;-72
2024/03/08 20:14:47;;;;;;;;;7.75;7.75;;;;;;;;5070324;28;8804;-69
2024/03/08 20:17:12;;;;;;;;;9.50;7.75;;;;;;;;5071389;28;8800;-71
2024/03/08 20:19:38;;;;;;;;;12.00;10.75;;;;;;;;5070860;28;8828;-69
2024/03/08 20:22:03;;;;;;;;;11.75;10.00;;;;;;;;5070721;28;8800;-69
2024/03/08 20:24:29;;;;;;;;;10.00;8.50;;;;;;;;5068994;28;11391;-69
2024/03/08 20:26:54;;;;;;;;;9.50;9.50;;;;;;;;5070138;28;8800;-69
2024/03/08 20:29:20;;;;;;;;;10.75;9.00;;;;;;;;5052632;28;8808;-69
2024/03/08 20:31:45;;;;;;;;;10.00;8.00;;;;;;;;5070871;28;8927;-68
2024/03/08 20:34:13;;;;;;;;;9.75;8.00;;;;;;;;5069678;28;8764;-69
2024/03/08 20:36:38;;;;;;;;;7.00;5.75;;;;;;;;5069667;28;8824;-71
2024/03/08 20:39:05;;;;;;;;;8.00;8.00;;;;;;;;5070340;28;12144;-73
2024/03/08 20:41:31;;;;;;;;;9.50;8.50;;;;;;;;5070312;28;8819;-70
2024/03/08 20:43:57;;;;;;;;;12.75;8.75;;;;;;;;5069833;28;11341;-70
2024/03/08 20:46:22;;;;;;;;;8.25;7.50;;;;;;;;5068879;28;12224;-69
2024/03/08 20:48:49;;;;;;;;;10.75;8.75;;;;;;;;5070185;28;8789;-70
2024/03/08 20:51:17;;;;;;;;;7.25;7.00;;;;;;;;5070071;28;8840;-70
2024/03/08 20:53:43;;;;;;;;;7.00;7.00;;;;;;;;5069939;28;11418;-70
2024/03/08 20:56:08;;;;;;;;;8.50;7.00;;;;;;;;5068599;28;11359;-70
2024/03/08 20:58:33;;;;;;;;;7.25;6.25;;;;;;;;5069789;28;11360;-70
2024/03/08 21:00:59;;;;;;;;;8.50;8.50;;;;;;;;5070064;28;8804;-69
2024/03/08 21:03:24;;;;;;;;;7.00;7.00;;;;;;;;5069924;28;8792;-71
2024/03/08 21:05:58;;;;;;;;;7.25;7.25;;;;;;;;5068762;28;8834;-71
2024/03/08 21:08:24;;;;;;;;;10.00;9.00;;;;;;;;5067976;28;8822;-73
2024/03/08 21:10:51;;;;;;;;;16.50;13.00;;;;;;;;5069945;28;11429;-78
2024/03/08 21:13:16;;;;;;;;;14.25;12.00;;;;;;;;5069435;28;11404;-73
2024/03/08 21:15:43;;;;;;;;;16.50;13.50;;;;;;;;5050241;28;12228;-72
2024/03/08 21:18:09;;;;;;;;;16.50;13.50;;;;;;;;5069735;28;8910;-75
2024/03/08 21:20:35;;;;;;;;;13.50;12.25;;;;;;;;5070053;28;11497;-74
2024/03/08 21:23:04;;;;;;;;;17.00;11.25;;;;;;;;5069851;28;8912;-74
2024/03/08 21:25:30;;;;;;;;;11.00;8.00;;;;;;;;5069011;28;8788;-74
2024/03/08 21:28:03;;;;;;;;;12.50;12.50;;;;;;;;5051218;28;11412;-74
2024/03/08 21:30:29;;;;;;;;;15.75;12.00;;;;;;;;5069929;28;8843;-73
2024/03/08 21:32:58;;;;;;;;;16.00;12.25;;;;;;;;5070120;28;11447;-73